Time;durP1;ratioP1;P1;durP2;ratioP2;P2;SDS_P1;SDS_P2;PMS_P1;PMS_P2;Temp;Humidity;BMP_temperature;BMP_pressure;BME280_temperature;BME280_humidity;BME280_pressure;Samples;Min_cycle;Max_cycle;Signal;HPM_P1;HPM_P2
2022/06/12 00:01:28;;;;;;;;;;;;;;;18.84;77.01;100162.47;4968993;28;19922;-86
2022/06/12 00:03:55;;;;;;;;;;;;;;;18.81;76.82;100158.31;5002074;28;19917;-87
2022/06/12 00:06:27;;;;;;;;;;;;;;;18.75;76.82;100170.06;5000792;28;19917;-88
2022/06/12 00:08:55;;;;;;;;;;;;;;;18.72;77.06;100168.63;5006622;28;20372;-87
2022/06/12 00:11:21;;;;;;;;;;;;;;;18.72;77.62;100159.63;4968575;28;20007;-88
2022/06/12 00:13:51;;;;;;;;;;;;;;;18.77;77.32;100152.47;4992963;28;20415;-86
2022/06/12 00:16:17;;;;;;;;;;;;;;;18.71;77.23;100158.81;4986709;28;19914;-86
2022/06/12 00:18:43;;;;;;;;;;;;;;;18.70;77.73;100154.41;4989732;28;19921;-87
2022/06/12 00:21:12;;;;;;;;;;;;;;;18.69;77.83;100155.47;4985725;28;20391;-87
2022/06/12 00:23:38;;;;;;;;;;;;;;;18.64;77.63;100158.06;4970285;28;19940;-87
2022/06/12 00:26:07;;;;;;;;;;;;;;;18.73;77.46;100156.69;4989613;28;20394;-87
2022/06/12 00:28:32;;;;;;;;;;;;;;;18.75;77.51;100159.19;4986193;28;19917;-87
2022/06/12 00:31:07;;;;;;;;;;;;;;;18.74;76.78;100147.47;4976092;28;19996;-87
2022/06/12 00:33:33;;;;;;;;;;;;;;;18.64;77.95;100140.91;4992508;28;20382;-87
2022/06/12 00:36:00;;;;;;;;;;;;;;;18.66;77.47;100134.16;5015883;28;20436;-87
2022/06/12 00:38:26;;;;;;;;;;;;;;;18.70;77.05;100154.41;5010336;28;19980;-88
2022/06/12 00:40:51;;;;;;;;;;;;;;;18.73;77.51;100144.94;4979388;28;20007;-88
2022/06/12 00:43:19;;;;;;;;;;;;;;;18.74;77.12;100147.47;5005077;28;19918;-87
2022/06/12 00:45:47;;;;;;;;;;;;;;;18.73;77.03;100144.94;5004307;28;19917;-87
2022/06/12 00:48:21;;;;;;;;;;;;;;;18.80;77.14;100147.63;5010050;28;20929;-87
2022/06/12 00:50:59;;;;;;;;;;;;;;;18.75;77.14;100143.69;5004277;28;20000;-87
2022/06/12 00:53:37;;;;;;;;;;;;;;;18.79;77.29;100143.25;4993817;28;19983;-89
2022/06/12 00:56:10;;;;;;;;;;;;;;;18.79;77.71;100148.72;5000838;28;19917;-88
2022/06/12 00:58:39;;;;;;;;;;;;;;;18.78;76.71;100158.78;4995514;28;19924;-88
2022/06/12 01:01:14;;;;;;;;;;;;;;;18.77;76.80;100146.19;4988539;28;19964;-88
2022/06/12 01:06:35;;;;;;;;;;;;;;;18.68;77.54;100142.94;5002275;28;19927;-88
2022/06/12 01:09:05;;;;;;;;;;;;;;;18.65;78.11;100143.38;5012383;28;19924;-88
2022/06/12 01:11:51;;;;;;;;;;;;;;;18.65;78.37;100146.09;4995592;28;19960;-88
2022/06/12 01:14:19;;;;;;;;;;;;;;;18.57;78.82;100143.69;5010413;28;20349;-86
2022/06/12 01:16:48;;;;;;;;;;;;;;;18.50;78.72;100148.38;5003120;28;19925;-86
2022/06/12 01:19:20;;;;;;;;;;;;;;;18.55;79.21;100145.81;5009164;28;19918;-86
2022/06/12 01:21:55;;;;;;;;;;;;;;;18.50;79.88;100129.31;4999027;28;19963;-87
2022/06/12 01:24:23;;;;;;;;;;;;;;;18.47;79.87;100138.78;4996212;28;19917;-87
2022/06/12 01:27:09;;;;;;;;;;;;;;;18.43;79.47;100139.44;4978583;28;19918;-88
2022/06/12 01:29:39;;;;;;;;;;;;;;;18.43;79.53;100123.13;5010156;28;19921;-89
2022/06/12 01:32:09;;;;;;;;;;;;;;;18.42;80.11;100118.72;4993111;28;19917;-88
2022/06/12 01:34:37;;;;;;;;;;;;;;;18.39;80.49;100128.16;5013116;28;19996;-87
2022/06/12 01:37:06;;;;;;;;;;;;;;;18.38;80.45;100131.97;5003423;28;19968;-87
2022/06/12 01:40:03;;;;;;;;;;;;;;;18.42;80.20;100130.44;5026453;28;19909;-86
2022/06/12 01:42:47;;;;;;;;;;;;;;;18.41;80.63;100141.56;4992943;28;19959;-87
2022/06/12 01:45:15;;;;;;;;;;;;;;;18.44;80.50;100141.94;5009983;28;19921;-86
2022/06/12 01:48:02;;;;;;;;;;;;;;;18.45;80.02;100131.88;4997766;28;19928;-86
2022/06/12 01:50:34;;;;;;;;;;;;;;;18.50;80.15;100142.94;4999570;28;19928;-87
2022/06/12 01:53:13;;;;;;;;;;;;;;;18.46;79.70;100128.09;4992882;28;19922;-85
2022/06/12 01:55:46;;;;;;;;;;;;;;;18.47;80.04;100129.75;4995642;28;19974;-85
2022/06/12 01:58:18;;;;;;;;;;;;;;;18.55;79.52;100113.97;4992794;28;20404;-87
2022/06/12 02:01:15;;;;;;;;;;;;;;;18.53;78.73;100117.97;4999032;28;19921;-86
2022/06/12 02:03:59;;;;;;;;;;;;;;;18.52;78.73;100121.75;5002612;28;19975;-86
2022/06/12 02:06:29;;;;;;;;;;;;;;;18.54;78.62;100120.47;4995328;28;19917;-86
2022/06/12 02:08:59;;;;;;;;;;;;;;;18.55;78.52;100121.31;4979416;28;19936;-86
2022/06/12 02:14:11;;;;;;;;;;;;;;;18.64;78.67;100125.38;4990452;28;19925;-86
2022/06/12 02:16:38;;;;;;;;;;;;;;;18.60;78.98;100118.72;4990815;28;19918;-88
2022/06/12 02:19:17;;;;;;;;;;;;;;;18.60;78.92;100118.72;4989373;28;19928;-86
2022/06/12 02:21:48;;;;;;;;;;;;;;;18.66;78.94;100117.84;4991007;28;20387;-87
2022/06/12 02:24:16;;;;;;;;;;;;;;;18.58;79.64;100109.94;4976980;28;19925;-87
2022/06/12 02:26:57;;;;;;;;;;;;;;;18.62;79.71;100115.78;4972573;28;19917;-86
2022/06/12 02:29:25;;;;;;;;;;;;;;;18.62;79.44;100113.88;4991257;28;20016;-86
2022/06/12 02:31:52;;;;;;;;;;;;;;;18.69;79.48;100121.97;4990573;28;20382;-86
2022/06/12 02:34:24;;;;;;;;;;;;;;;18.69;79.59;100122.81;4991766;28;20326;-86
2022/06/12 02:36:52;;;;;;;;;;;;;;;18.67;79.59;100121.38;4999693;28;19949;-86
2022/06/12 02:39:33;;;;;;;;;;;;;;;18.64;79.58;100117.22;4999563;28;19985;-87
2022/06/12 02:42:00;;;;;;;;;;;;;;;18.61;79.69;100106.75;5019316;28;19960;-88
2022/06/12 02:44:45;;;;;;;;;;;;;;;18.63;79.97;100112.00;4995695;28;19932;-86
2022/06/12 02:47:31;;;;;;;;;;;;;;;18.60;80.08;100116.00;4974951;28;19925;-89
2022/06/12 02:49:59;;;;;;;;;;;;;;;18.65;79.95;100099.00;5000528;28;19972;-89
2022/06/12 02:52:28;;;;;;;;;;;;;;;18.61;80.08;100104.03;4998684;28;19949;-87
2022/06/12 02:54:57;;;;;;;;;;;;;;;18.66;79.95;100104.22;4990350;28;20386;-88
2022/06/12 02:57:36;;;;;;;;;;;;;;;18.68;79.93;100113.00;4991425;28;20362;-88
2022/06/12 03:00:06;;;;;;;;;;;;;;;18.72;79.61;100111.47;4988875;28;20008;-86
2022/06/12 03:02:35;;;;;;;;;;;;;;;18.69;79.75;100114.66;4973266;28;19924;-86
2022/06/12 03:05:15;;;;;;;;;;;;;;;18.70;79.73;100102.69;4991772;28;20396;-87
2022/06/12 03:07:40;;;;;;;;;;;;;;;18.71;80.02;100107.09;4988261;28;19968;-88
2022/06/12 03:10:06;;;;;;;;;;;;;;;18.79;79.50;100102.41;4990765;28;19917;-88
2022/06/12 03:12:34;;;;;;;;;;;;;;;18.81;79.54;100103.84;4989866;28;19925;-86
2022/06/12 03:15:06;;;;;;;;;;;;;;;18.86;79.53;100100.44;4990233;28;19920;-87
2022/06/12 03:17:32;;;;;;;;;;;;;;;18.88;79.17;100109.22;4989677;28;20357;-87
2022/06/12 03:19:58;;;;;;;;;;;;;;;18.87;78.97;100107.53;4979253;28;19921;-88
2022/06/12 03:22:31;;;;;;;;;;;;;;;18.89;79.08;100105.41;4989500;28;19976;-87
2022/06/12 03:25:15;;;;;;;;;;;;;;;18.94;79.07;100103.69;4990802;28;19935;-87
2022/06/12 03:27:59;;;;;;;;;;;;;;;18.87;79.05;100111.13;4991107;28;19925;-87
2022/06/12 03:30:29;;;;;;;;;;;;;;;18.83;79.10;100107.19;4990002;28;19917;-89
2022/06/12 03:33:11;;;;;;;;;;;;;;;18.83;79.46;100118.06;4985213;28;20016;-87
2022/06/12 03:35:50;;;;;;;;;;;;;;;18.92;79.16;100119.44;4967822;28;19918;-87
2022/06/12 03:38:19;;;;;;;;;;;;;;;18.97;78.64;100124.19;4989959;28;20023;-86
2022/06/12 03:40:57;;;;;;;;;;;;;;;18.98;78.40;100117.66;5001710;28;19941;-86
2022/06/12 03:43:40;;;;;;;;;;;;;;;19.01;78.45;100121.81;5003797;28;20012;-87
2022/06/12 03:46:15;;;;;;;;;;;;;;;19.03;78.74;100112.34;5002406;28;19917;-85
2022/06/12 03:48:55;;;;;;;;;;;;;;;18.99;79.17;100127.50;4999702;28;20016;-87
2022/06/12 03:51:25;;;;;;;;;;;;;;;19.04;78.31;100135.00;5001867;28;20330;-88
2022/06/12 03:54:06;;;;;;;;;;;;;;;19.08;78.33;100134.31;5003985;28;19917;-89
2022/06/12 03:59:21;;;;;;;;;;;;;;;19.17;77.33;100146.56;4995309;28;20342;-88
2022/06/12 04:01:47;;;;;;;;;;;;;;;19.18;76.97;100129.13;4991231;28;19936;-88
2022/06/12 04:04:14;;;;;;;;;;;;;;;19.22;76.68;100136.84;4977733;28;19922;-88
2022/06/12 04:06:42;;;;;;;;;;;;;;;19.28;76.35;100135.94;4994961;28;19917;-88
2022/06/12 04:09:21;;;;;;;;;;;;;;;19.31;76.03;100130.00;4998071;28;19918;-88
2022/06/12 04:11:57;;;;;;;;;;;;;;;19.25;76.48;100125.50;5010604;28;20003;-88
2022/06/12 04:14:27;;;;;;;;;;;;;;;19.27;76.07;100115.16;5014172;28;19967;-87
2022/06/12 04:16:55;;;;;;;;;;;;;;;19.21;76.29;100118.84;5011335;28;19918;-85
2022/06/12 04:19:23;;;;;;;;;;;;;;;19.08;76.88;100120.69;5011580;28;22075;-89
2022/06/12 04:21:51;;;;;;;;;;;;;;;19.12;76.94;100127.31;4997942;28;20012;-87
2022/06/12 04:24:19;;;;;;;;;;;;;;;19.07;77.42;100118.19;5013204;28;19917;-88
2022/06/12 04:26:51;;;;;;;;;;;;;;;19.00;77.32;100117.44;4998122;28;19913;-90
2022/06/12 04:29:30;;;;;;;;;;;;;;;18.97;77.48;100126.91;4998942;28;19922;-88
2022/06/12 04:31:57;;;;;;;;;;;;;;;18.93;77.82;100129.25;4997764;28;19971;-89
2022/06/12 04:34:26;;;;;;;;;;;;;;;18.90;77.41;100123.44;5005733;28;19927;-88
2022/06/12 04:36:56;;;;;;;;;;;;;;;18.81;78.02;100127.53;5011593;28;20727;-88
2022/06/12 04:39:29;;;;;;;;;;;;;;;18.68;78.28;100112.13;5012371;28;19971;-86
2022/06/12 04:42:04;;;;;;;;;;;;;;;18.74;78.67;100113.97;4998792;28;20016;-88
2022/06/12 04:44:31;;;;;;;;;;;;;;;18.60;78.70;100107.84;4989944;28;19913;-87
2022/06/12 04:46:57;;;;;;;;;;;;;;;18.54;78.83;100115.03;5013878;28;19972;-84
2022/06/12 04:49:28;;;;;;;;;;;;;;;18.46;78.53;100118.03;4997665;28;20353;-87
2022/06/12 04:52:00;;;;;;;;;;;;;;;18.49;79.11;100116.75;5002995;28;19923;-88
2022/06/12 04:54:26;;;;;;;;;;;;;;;18.46;79.11;100119.94;4998824;28;19913;-83
2022/06/12 04:56:54;;;;;;;;;;;;;;;18.47;78.98;100124.31;4983085;28;20269;-84
2022/06/12 04:59:20;;;;;;;;;;;;;;;18.48;78.47;100115.94;5011674;28;19925;-85
2022/06/12 05:01:50;;;;;;;;;;;;;;;18.49;78.57;100122.19;4999491;28;20294;-85
2022/06/12 05:04:18;;;;;;;;;;;;;;;18.54;78.21;100111.47;4998754;28;19957;-86
2022/06/12 05:06:44;;;;;;;;;;;;;;;18.67;78.12;100110.50;5011117;28;19979;-84
2022/06/12 05:09:10;;;;;;;;;;;;;;;18.79;77.56;100105.97;4996380;28;20364;-84
2022/06/12 05:11:38;;;;;;;;;;;;;;;18.88;76.62;100103.78;5010587;28;19918;-85
2022/06/12 05:14:09;;;;;;;;;;;;;;;18.95;76.00;100102.63;4998685;28;19925;-84
2022/06/12 05:17:02;;;;;;;;;;;;;;;18.98;75.85;100107.59;5010061;28;19917;-85
2022/06/12 05:19:29;;;;;;;;;;;;;;;19.03;76.07;100097.91;4999554;28;19921;-88
2022/06/12 05:22:00;;;;;;;;;;;;;;;19.16;76.34;100082.22;4996097;28;20007;-87
2022/06/12 05:24:32;;;;;;;;;;;;;;;19.31;75.20;100091.84;5010797;28;20349;-86
2022/06/12 05:27:03;;;;;;;;;;;;;;;19.33;75.66;100087.00;4992406;28;19932;-89
2022/06/12 05:29:30;;;;;;;;;;;;;;;19.55;74.09;100090.00;4982524;28;20008;-87
2022/06/12 05:32:02;;;;;;;;;;;;;;;19.61;73.82;100097.28;5019276;28;19917;-86
2022/06/12 05:34:29;;;;;;;;;;;;;;;19.60;74.18;100099.16;5011102;28;19917;-85
2022/06/12 05:37:01;;;;;;;;;;;;;;;19.66;73.70;100088.38;4998048;28;20346;-87
2022/06/12 05:39:28;;;;;;;;;;;;;;;19.71;73.87;100094.81;4996436;28;19921;-88
2022/06/12 05:41:57;;;;;;;;;;;;;;;19.71;74.42;100096.72;5014287;28;20393;-86
2022/06/12 05:44:22;;;;;;;;;;;;;;;19.72;74.00;100110.13;4993878;28;19905;-88
2022/06/12 05:46:48;;;;;;;;;;;;;;;19.76;73.92;100110.47;5020499;28;21045;-88
2022/06/12 05:49:14;;;;;;;;;;;;;;;19.79;74.28;100104.56;5035071;28;19929;-88
2022/06/12 05:52:16;;;;;;;;;;;;;;;19.77;74.21;100120.34;4991530;28;19971;-89
2022/06/12 05:54:59;;;;;;;;;;;;;;;19.76;74.41;100103.16;5010392;28;19936;-93
2022/06/12 05:57:28;;;;;;;;;;;;;;;19.91;73.85;100115.50;5012749;28;20297;-90
2022/06/12 05:59:58;;;;;;;;;;;;;;;19.95;73.88;100109.34;4984797;28;19917;-90
2022/06/12 06:02:45;;;;;;;;;;;;;;;19.99;74.14;100110.53;4996411;28;19925;-88
2022/06/12 06:08:36;;;;;;;;;;;;;;;20.33;73.19;100113.47;5018798;28;19935;-89
2022/06/12 06:13:57;;;;;;;;;;;;;;;20.59;72.01;100114.91;4998612;28;20355;-89
2022/06/12 06:16:28;;;;;;;;;;;;;;;20.75;71.47;100129.72;4978096;28;19918;-92
2022/06/12 06:19:02;;;;;;;;;;;;;;;21.07;70.81;100113.72;4996027;28;19956;-90
2022/06/12 06:21:29;;;;;;;;;;;;;;;21.29;70.11;100123.94;4996279;28;19913;-88
2022/06/12 06:23:55;;;;;;;;;;;;;;;21.61;68.80;100117.97;4993498;28;19918;-87
2022/06/12 06:26:24;;;;;;;;;;;;;;;21.84;68.17;100117.00;4996010;28;20375;-87
2022/06/12 06:28:51;;;;;;;;;;;;;;;22.13;66.86;100101.31;4992782;28;20409;-85
2022/06/12 06:31:19;;;;;;;;;;;;;;;22.60;65.55;100111.06;4985161;28;19994;-86
2022/06/12 06:33:44;;;;;;;;;;;;;;;22.50;64.74;100112.56;4993862;28;20378;-85
2022/06/12 06:36:11;;;;;;;;;;;;;;;22.68;65.47;100116.06;4985132;28;19937;-86
2022/06/12 06:38:46;;;;;;;;;;;;;;;22.93;64.74;100121.88;5007183;28;19937;-90
2022/06/12 06:41:12;;;;;;;;;;;;;;;23.08;63.67;100118.50;4995354;28;19967;-89
2022/06/12 06:46:23;;;;;;;;;;;;;;;23.06;62.98;100128.06;4991670;28;19929;-86
2022/06/12 06:48:49;;;;;;;;;;;;;;;23.15;62.42;100124.63;4996081;28;20052;-87
2022/06/12 06:51:19;;;;;;;;;;;;;;;23.12;62.44;100118.84;4993766;28;19914;-88
2022/06/12 06:53:53;;;;;;;;;;;;;;;23.08;62.37;100128.66;4994124;28;19918;-89
2022/06/12 06:56:25;;;;;;;;;;;;;;;23.03;62.06;100121.19;4998889;28;19918;-90
2022/06/12 06:59:05;;;;;;;;;;;;;;;23.12;62.23;100121.56;4995088;28;19922;-87
2022/06/12 07:01:40;;;;;;;;;;;;;;;23.03;61.60;100120.38;5005408;28;19964;-95
2022/06/12 07:04:11;;;;;;;;;;;;;;;22.99;61.82;100120.03;4999110;28;19985;-88
2022/06/12 07:06:52;;;;;;;;;;;;;;;23.02;61.98;100122.28;5010631;28;19918;-88
2022/06/12 07:09:23;;;;;;;;;;;;;;;23.12;61.54;100122.41;5009207;28;19914;-88
2022/06/12 07:11:50;;;;;;;;;;;;;;;23.28;60.71;100128.88;5005929;28;19917;-87
2022/06/12 07:14:16;;;;;;;;;;;;;;;23.37;60.56;100116.38;5010014;28;19917;-89
2022/06/12 07:16:55;;;;;;;;;;;;;;;23.30;60.99;100115.75;5000979;28;19932;-88
2022/06/12 07:19:20;;;;;;;;;;;;;;;23.38;60.10;100133.63;5004633;28;20285;-85
2022/06/12 07:21:48;;;;;;;;;;;;;;;23.31;60.74;100139.31;5012987;28;20389;-87
2022/06/12 07:24:16;;;;;;;;;;;;;;;23.38;60.85;100128.16;5004215;28;19985;-89
2022/06/12 07:26:44;;;;;;;;;;;;;;;23.37;60.36;100121.84;5002375;28;20053;-88
2022/06/12 07:29:13;;;;;;;;;;;;;;;23.35;60.28;100140.47;4995796;28;19921;-90
2022/06/12 07:31:51;;;;;;;;;;;;;;;23.28;61.00;100139.84;5008378;28;19918;-88
2022/06/12 07:34:17;;;;;;;;;;;;;;;23.14;61.09;100133.13;4996520;28;19960;-88
2022/06/12 07:36:44;;;;;;;;;;;;;;;23.09;61.43;100152.25;4995401;28;19921;-93
2022/06/12 07:39:12;;;;;;;;;;;;;;;23.01;61.15;100145.28;4999499;28;19929;-88
2022/06/12 07:41:37;;;;;;;;;;;;;;;23.08;61.09;100136.88;4998387;28;19975;-86
2022/06/12 07:44:06;;;;;;;;;;;;;;;23.07;61.59;100146.19;5002720;28;19928;-86
2022/06/12 07:46:35;;;;;;;;;;;;;;;22.95;61.69;100147.13;5000288;28;19976;-89
2022/06/12 07:49:06;;;;;;;;;;;;;;;23.02;61.35;100152.44;5021640;28;19944;-88
2022/06/12 07:51:40;;;;;;;;;;;;;;;22.84;61.82;100150.00;5007652;28;19966;-91
2022/06/12 07:54:07;;;;;;;;;;;;;;;22.96;61.95;100143.28;5024762;28;19913;-93
2022/06/12 07:56:39;;;;;;;;;;;;;;;22.94;62.00;100144.63;5016761;28;19928;-89
2022/06/12 07:59:29;;;;;;;;;;;;;;;22.90;61.93;100149.81;5016966;28;19914;-94
2022/06/12 08:02:11;;;;;;;;;;;;;;;22.94;62.11;100147.38;5006102;28;19936;-94
2022/06/12 08:05:03;;;;;;;;;;;;;;;22.96;62.85;100151.50;4987203;28;20000;-92
2022/06/12 08:07:40;;;;;;;;;;;;;;;22.96;62.76;100161.66;5016818;28;19940;-91
2022/06/12 08:10:20;;;;;;;;;;;;;;;22.98;62.77;100151.25;4999263;28;19924;-93
2022/06/12 08:12:47;;;;;;;;;;;;;;;22.86;62.63;100148.66;5016188;28;19912;-91
2022/06/12 08:15:16;;;;;;;;;;;;;;;22.86;63.08;100156.88;4994254;28;19955;-85
2022/06/12 08:17:41;;;;;;;;;;;;;;;22.90;63.35;100148.97;4998156;28;20335;-92
2022/06/12 08:20:30;;;;;;;;;;;;;;;22.88;63.31;100157.44;5002000;28;19933;-92
2022/06/12 08:22:55;;;;;;;;;;;;;;;23.09;62.98;100157.75;5014680;28;19921;-91
2022/06/12 08:25:21;;;;;;;;;;;;;;;23.05;63.12;100162.06;5010467;28;19921;-87
2022/06/12 08:27:58;;;;;;;;;;;;;;;23.03;62.97;100176.03;4995001;28;20364;-93
2022/06/12 08:30:41;;;;;;;;;;;;;;;23.08;63.39;100180.75;5018245;28;19988;-96
2022/06/12 08:33:13;;;;;;;;;;;;;;;23.24;63.39;100176.28;4984186;28;20010;-95
2022/06/12 08:36:14;;;;;;;;;;;;;;;23.31;63.11;100172.25;5004860;28;19917;-94
2022/06/12 08:38:45;;;;;;;;;;;;;;;23.52;62.56;100172.47;5180264;23;20021;-94
2022/06/12 08:41:22;;;;;;;;;;;;;;;23.68;61.87;100168.78;5001071;28;19918;-87
2022/06/12 08:43:51;;;;;;;;;;;;;;;23.68;62.19;100178.94;5020016;28;19918;-94
2022/06/12 08:46:56;;;;;;;;;;;;;;;23.62;61.91;100174.47;5003644;28;19924;-90
2022/06/12 08:49:27;;;;;;;;;;;;;;;23.72;62.60;100167.19;5007163;28;20004;-88
2022/06/12 08:52:12;;;;;;;;;;;;;;;23.84;61.86;100168.97;5003195;28;19921;-91
2022/06/12 08:54:44;;;;;;;;;;;;;;;23.97;61.95;100171.25;5003023;28;19914;-88
2022/06/12 08:57:21;;;;;;;;;;;;;;;24.09;61.51;100165.59;5029096;28;19990;-93
2022/06/12 09:00:11;;;;;;;;;;;;;;;24.21;61.28;100171.75;5018227;28;19910;-94
2022/06/12 09:02:41;;;;;;;;;;;;;;;24.45;60.86;100174.94;5016419;28;19937;-95
2022/06/12 09:05:13;;;;;;;;;;;;;;;24.61;59.75;100173.16;5024899;28;19997;-94
2022/06/12 09:07:53;;;;;;;;;;;;;;;24.63;60.06;100174.53;5003996;28;19937;-90
2022/06/12 09:10:44;;;;;;;;;;;;;;;24.73;58.56;100176.50;5018231;28;19977;-91
2022/06/12 09:13:28;;;;;;;;;;;;;;;24.94;58.45;100176.63;4990658;28;19921;-89
2022/06/12 09:16:20;;;;;;;;;;;;;;;24.96;57.80;100180.75;5018272;28;19972;-90
2022/06/12 09:19:08;;;;;;;;;;;;;;;25.06;57.84;100171.72;5005729;28;20017;-90
2022/06/12 09:21:37;;;;;;;;;;;;;;;25.37;57.67;100169.91;5014655;28;20014;-93
2022/06/12 09:24:21;;;;;;;;;;;;;;;25.74;56.14;100168.06;5005867;28;19918;-92
2022/06/12 09:27:18;;;;;;;;;;;;;;;;;;;;;
2022/06/12 09:33:12;;;;;;;;;;;;;;;25.96;55.95;100176.91;5001721;28;20784;-88
2022/06/12 09:35:56;;;;;;;;;;;;;;;25.92;55.94;100177.72;4998743;28;19914;-86
2022/06/12 09:38:39;;;;;;;;;;;;;;;25.99;55.34;100176.38;4993200;28;19917;-85
2022/06/12 09:41:34;;;;;;;;;;;;;;;25.89;56.27;100165.34;5000032;28;19921;-86
2022/06/12 09:44:34;;;;;;;;;;;;;;;26.27;55.06;100154.84;5007007;28;19918;-86
2022/06/12 09:47:25;;;;;;;;;;;;;;;26.31;54.74;100155.94;4996221;28;19918;-88
2022/06/12 09:50:10;;;;;;;;;;;;;;;26.27;55.12;100149.34;4996384;28;19925;-91
2022/06/12 09:52:57;;;;;;;;;;;;;;;26.35;55.70;100151.53;4999759;28;19902;-93
2022/06/12 09:55:40;;;;;;;;;;;;;;;26.42;55.30;100145.75;4999132;28;19941;-87
2022/06/12 09:58:09;;;;;;;;;;;;;;;26.40;55.33;100142.44;5005676;28;19991;-93
2022/06/12 10:00:41;;;;;;;;;;;;;;;26.23;55.23;100157.34;4991115;28;19914;-89
2022/06/12 10:03:32;;;;;;;;;;;;;;;26.18;55.59;100162.88;4995264;28;19918;-94
2022/06/12 10:06:01;;;;;;;;;;;;;;;26.09;55.31;100159.84;4953598;29;19932;-92
2022/06/12 10:08:35;;;;;;;;;;;;;;;26.19;55.31;100170.03;4990833;28;20303;-87
2022/06/12 10:11:32;;;;;;;;;;;;;;;;;;;;;
2022/06/12 10:14:04;;;;;;;;;;;;;;;26.24;55.24;100183.78;4995247;28;19996;-88
2022/06/12 10:16:33;;;;;;;;;;;;;;;26.32;54.88;100180.47;5016663;28;19921;-88
2022/06/12 10:19:24;;;;;;;;;;;;;;;26.16;55.36;100181.59;5001433;28;19948;-86
2022/06/12 10:22:01;;;;;;;;;;;;;;;26.29;55.06;100175.53;5002744;28;20322;-92
2022/06/12 10:24:26;;;;;;;;;;;;;;;26.42;54.91;100181.56;4994633;28;19976;-91
2022/06/12 10:27:24;;;;;;;;;;;;;;;26.58;55.32;100174.97;4990052;28;19917;-88
2022/06/12 10:30:08;;;;;;;;;;;;;;;26.55;53.18;100178.28;5062952;23;19925;-94
2022/06/12 10:33:17;;;;;;;;;;;;;;;26.73;52.29;100182.34;5018032;28;19953;-95
2022/06/12 10:35:52;;;;;;;;;;;;;;;26.75;52.49;100174.63;4950413;28;19915;-86
2022/06/12 10:38:25;;;;;;;;;;;;;;;27.05;51.87;100170.94;5012846;28;20020;-87
2022/06/12 10:41:04;;;;;;;;;;;;;;;27.40;51.39;100169.16;5002482;28;19967;-89
2022/06/12 10:43:36;;;;;;;;;;;;;;;27.88;49.96;100169.38;4999128;28;19913;-91
2022/06/12 10:46:02;;;;;;;;;;;;;;;28.08;49.61;100159.28;4997584;28;19914;-91
2022/06/12 10:51:40;;;;;;;;;;;;;;;28.51;49.12;100163.03;5031550;28;19916;-90
2022/06/12 10:54:38;;;;;;;;;;;;;;;28.44;48.07;100156.19;4982151;28;19913;-89
2022/06/12 10:57:11;;;;;;;;;;;;;;;28.60;48.38;100163.22;5016289;28;20346;-91
2022/06/12 10:59:45;;;;;;;;;;;;;;;28.99;47.50;100153.94;5021940;28;19913;-87
2022/06/12 11:02:12;;;;;;;;;;;;;;;28.85;47.79;100147.47;5002072;28;19917;-90
2022/06/12 11:04:40;;;;;;;;;;;;;;;29.10;47.84;100151.88;5005631;28;19976;-89
2022/06/12 11:07:26;;;;;;;;;;;;;;;29.07;46.59;100141.38;5014458;28;19953;-88
2022/06/12 11:12:45;;;;;;;;;;;;;;;29.85;46.09;100151.06;5013344;28;19913;-91
2022/06/12 11:15:27;;;;;;;;;;;;;;;29.96;44.71;100133.13;5011892;28;19956;-90
2022/06/12 11:18:24;;;;;;;;;;;;;;;30.43;43.95;100127.63;5013828;28;20011;-91
2022/06/12 11:21:12;;;;;;;;;;;;;;;30.37;44.20;100129.69;4987526;28;19920;-90
2022/06/12 11:23:47;;;;;;;;;;;;;;;30.14;45.71;100131.44;5014195;28;19913;-91
2022/06/12 11:26:18;;;;;;;;;;;;;;;29.85;47.36;100143.59;5019977;28;19952;-90
2022/06/12 11:28:44;;;;;;;;;;;;;;;29.25;46.89;100133.09;5014520;28;20004;-88
2022/06/12 11:31:19;;;;;;;;;;;;;;;29.33;47.46;100123.31;5005161;28;19976;-88
2022/06/12 11:33:59;;;;;;;;;;;;;;;28.94;47.31;100138.22;5018399;28;19920;-90
2022/06/12 11:36:27;;;;;;;;;;;;;;;28.86;47.80;100122.25;5007564;28;19914;-91
2022/06/12 11:39:03;;;;;;;;;;;;;;;29.09;47.52;100122.56;5014856;28;19944;-91
2022/06/12 11:41:44;;;;;;;;;;;;;;;29.11;47.31;100121.13;4978425;28;20277;-89
2022/06/12 11:44:10;;;;;;;;;;;;;;;29.22;46.22;100113.50;5020932;28;19947;-94
2022/06/12 11:47:07;;;;;;;;;;;;;;;29.29;46.24;100111.22;4995832;28;19964;-91
2022/06/12 11:49:56;;;;;;;;;;;;;;;29.62;45.75;100116.78;4980699;28;19913;-92
2022/06/12 11:52:45;;;;;;;;;;;;;;;29.81;45.30;100105.72;5024134;28;19924;-91
2022/06/12 11:55:26;;;;;;;;;;;;;;;29.90;44.21;100109.44;4979736;28;19918;-90
2022/06/12 11:57:56;;;;;;;;;;;;;;;29.76;44.07;100111.31;5011147;28;20386;-91
2022/06/12 12:00:31;;;;;;;;;;;;;;;29.86;44.52;100102.84;5001605;28;19913;-94
2022/06/12 12:03:15;;;;;;;;;;;;;;;30.23;43.76;100101.09;5004059;28;20361;-91
2022/06/12 12:05:48;;;;;;;;;;;;;;;30.15;43.66;100093.47;5034570;28;19917;-90
2022/06/12 12:08:35;;;;;;;;;;;;;;;30.19;43.13;100086.19;5030105;28;19925;-89
2022/06/12 12:11:13;;;;;;;;;;;;;;;29.88;42.69;100090.34;5027569;28;19917;-89
2022/06/12 12:13:49;;;;;;;;;;;;;;;30.11;41.65;100086.88;5018754;28;19917;-92
2022/06/12 12:16:33;;;;;;;;;;;;;;;30.15;41.76;100087.91;4979953;28;19918;-89
2022/06/12 12:19:07;;;;;;;;;;;;;;;29.93;41.01;100075.56;5010498;28;19960;-89
2022/06/12 12:21:33;;;;;;;;;;;;;;;29.89;39.88;100074.53;4990353;28;20286;-91
2022/06/12 12:24:24;;;;;;;;;;;;;;;29.78;37.51;100067.50;5022193;28;19921;-93
2022/06/12 12:27:14;;;;;;;;;;;;;;;29.69;36.82;100063.78;5012175;28;20393;-89
2022/06/12 12:29:39;;;;;;;;;;;;;;;29.64;35.96;100079.34;5013517;28;19918;-85
2022/06/12 12:32:05;;;;;;;;;;;;;;;29.58;36.69;100080.56;4996663;28;20031;-90
2022/06/12 12:34:31;;;;;;;;;;;;;;;29.41;37.43;100080.28;5012630;28;19928;-90
2022/06/12 12:42:47;;;;;;;;;;;;;;;29.19;38.18;100087.25;5007347;28;19975;-88
2022/06/12 12:45:28;;;;;;;;;;;;;;;29.22;38.58;100074.75;5014026;28;19925;-92
2022/06/12 12:48:15;;;;;;;;;;;;;;;;;;;;;
2022/06/12 12:50:42;;;;;;;;;;;;;;;28.94;38.66;100074.56;5021925;28;20017;-88
2022/06/12 12:53:29;;;;;;;;;;;;;;;28.84;38.71;100074.69;5035002;28;19921;-88
2022/06/12 12:56:06;;;;;;;;;;;;;;;28.94;38.92;100068.19;5020486;28;19988;-89
2022/06/12 12:58:36;;;;;;;;;;;;;;;29.00;38.49;100075.31;5021556;28;20465;-93
2022/06/12 13:01:12;;;;;;;;;;;;;;;29.06;37.55;100074.13;5027316;28;20262;-93
2022/06/12 13:04:10;;;;;;;;;;;;;;;29.07;36.32;100077.72;5029899;28;19953;-89
2022/06/12 13:06:57;;;;;;;;;;;;;;;28.88;35.75;100086.00;5027846;23;19969;-89
2022/06/12 13:09:59;;;;;;;;;;;;;;;28.98;35.11;100088.63;5199550;23;19910;-90
2022/06/12 13:12:46;;;;;;;;;;;;;;;29.18;35.35;100082.84;5144584;23;19909;-91
2022/06/12 13:15:23;;;;;;;;;;;;;;;29.27;35.14;100090.44;5030551;28;19940;-90
2022/06/12 13:18:10;;;;;;;;;;;;;;;29.18;35.77;100099.44;5030116;28;19906;-92
2022/06/12 13:20:37;;;;;;;;;;;;;;;29.18;36.35;100101.41;5020174;28;20007;-88
2022/06/12 13:23:43;;;;;;;;;;;;;;;29.02;36.17;100112.63;5032160;28;19921;-87
2022/06/12 13:26:09;;;;;;;;;;;;;;;28.93;36.31;100083.16;4999075;28;19913;-87
2022/06/12 13:28:37;;;;;;;;;;;;;;;28.99;36.87;100104.13;4978195;28;19995;-88
2022/06/12 13:31:03;;;;;;;;;;;;;;;28.87;37.78;100100.94;4979137;28;20026;-86
2022/06/12 13:33:50;;;;;;;;;;;;;;;29.04;37.56;100104.03;5015104;28;19914;-91
2022/06/12 13:36:24;;;;;;;;;;;;;;;28.87;38.17;100104.56;5016440;28;20068;-88
2022/06/12 13:38:56;;;;;;;;;;;;;;;29.10;38.43;100102.88;4999177;28;20008;-88
2022/06/12 13:41:51;;;;;;;;;;;;;;;29.25;38.47;100107.38;4998461;28;19917;-90
2022/06/12 13:44:42;;;;;;;;;;;;;;;29.09;38.97;100106.78;5018562;28;19913;-84
2022/06/12 13:47:19;;;;;;;;;;;;;;;29.09;39.92;100106.78;4998318;28;19917;-88
2022/06/12 13:50:12;;;;;;;;;;;;;;;29.12;40.17;100106.16;5014850;28;19917;-90
2022/06/12 13:52:38;;;;;;;;;;;;;;;28.92;40.69;100106.44;5023311;28;19980;-91